createdAt,value
2018-04-18T00:00:22.209Z,997.66
2018-04-18T00:01:22.446Z,997.63
2018-04-18T00:02:22.601Z,997.64
2018-04-18T00:03:22.807Z,997.67
2018-04-18T00:04:23.014Z,997.69
2018-04-18T00:05:23.215Z,997.68
2018-04-18T00:06:23.391Z,997.69
2018-04-18T00:07:23.572Z,997.70
2018-04-18T00:08:23.755Z,997.68
2018-04-18T00:09:23.963Z,997.71
2018-04-18T00:10:24.157Z,997.68
2018-04-18T00:11:24.356Z,997.66
2018-04-18T00:12:24.554Z,997.67
2018-04-18T00:13:24.758Z,997.68
2018-04-18T00:14:24.973Z,997.64
2018-04-18T00:15:25.167Z,997.67
2018-04-18T00:16:25.355Z,997.66
2018-04-18T00:17:25.542Z,997.67
2018-04-18T00:18:25.745Z,997.66
2018-04-18T00:19:25.928Z,997.68
2018-04-18T00:20:26.110Z,997.70
2018-04-18T00:21:26.307Z,997.69
2018-04-18T00:22:26.510Z,997.68
2018-04-18T00:23:26.720Z,997.69
2018-04-18T00:24:26.928Z,997.71
2018-04-18T00:25:27.148Z,997.73
2018-04-18T00:26:27.338Z,997.67
2018-04-18T00:27:27.522Z,997.66
2018-04-18T00:28:27.721Z,997.67
2018-04-18T00:29:27.914Z,997.69
2018-04-18T00:30:28.097Z,997.68
2018-04-18T00:31:28.295Z,997.69
2018-04-18T00:34:00.448Z,997.76
2018-04-18T00:35:00.663Z,997.77
2018-04-18T00:36:00.852Z,997.79
2018-04-18T00:37:01.059Z,997.79
2018-04-18T00:38:01.266Z,997.78
2018-04-18T00:39:01.473Z,997.85
2018-04-18T00:40:01.672Z,997.82
2018-04-18T00:41:01.872Z,997.82
2018-04-18T00:42:02.074Z,997.84
2018-04-18T00:43:02.251Z,997.86
2018-04-18T00:44:02.464Z,997.87
2018-04-18T00:45:02.675Z,997.91
2018-04-18T00:46:02.873Z,997.87
2018-04-18T00:47:03.075Z,997.91
2018-04-18T00:48:03.273Z,997.88
2018-04-18T00:49:03.463Z,997.93
2018-04-18T00:51:37.304Z,997.92
2018-04-18T00:52:35.482Z,997.90
2018-04-18T00:53:35.692Z,997.88
2018-04-18T00:54:35.899Z,997.91
2018-04-18T00:55:36.083Z,997.94
2018-04-18T00:56:36.264Z,997.88
2018-04-18T00:57:36.475Z,997.88
2018-04-18T00:58:36.658Z,997.87
2018-04-18T00:59:36.854Z,997.88
2018-04-18T01:00:37.037Z,997.87
2018-04-18T01:01:37.237Z,997.87
2018-04-18T01:02:37.454Z,997.85
2018-04-18T01:03:37.618Z,997.84
2018-04-18T01:04:37.848Z,997.87
2018-04-18T01:05:38.003Z,997.84
2018-04-18T01:06:38.187Z,997.85
2018-04-18T01:09:12.024Z,997.89
2018-04-18T01:10:10.694Z,997.90
2018-04-18T01:11:10.884Z,997.89
2018-04-18T01:12:11.151Z,997.89
2018-04-18T01:13:11.233Z,997.87
2018-04-18T01:14:11.417Z,997.86
2018-04-18T01:15:11.626Z,997.86
2018-04-18T01:16:11.825Z,997.88
2018-04-18T01:17:12.011Z,997.87
2018-04-18T01:18:12.218Z,997.86
2018-04-18T01:19:12.520Z,997.89
2018-04-18T01:20:12.579Z,997.93
2018-04-18T01:21:12.772Z,997.91
2018-04-18T01:22:12.950Z,997.91
2018-04-18T01:23:13.154Z,997.90
2018-04-18T01:24:13.356Z,997.89
2018-04-18T01:25:13.557Z,997.93
2018-04-18T01:26:13.749Z,997.90
2018-04-18T01:27:13.939Z,997.94
2018-04-18T01:28:14.134Z,997.94
2018-04-18T01:29:14.342Z,997.95
2018-04-18T01:30:14.535Z,997.95
2018-04-18T01:31:14.738Z,997.96
2018-04-18T01:32:14.944Z,997.96
2018-04-18T01:33:15.125Z,997.98
2018-04-18T01:34:15.339Z,998.01
2018-04-18T01:35:15.539Z,997.99
2018-04-18T01:36:15.721Z,998.02
2018-04-18T01:37:15.906Z,998.04
2018-04-18T01:38:16.094Z,998.02
2018-04-18T01:39:16.278Z,998.04
2018-04-18T01:40:16.465Z,998.01
2018-04-18T01:41:16.664Z,998.04
2018-04-18T01:42:16.864Z,998.06
2018-04-18T01:43:17.054Z,998.07
2018-04-18T01:44:17.254Z,998.07
2018-04-18T01:45:17.447Z,998.06
2018-04-18T01:46:17.631Z,998.11
2018-04-18T01:47:17.803Z,998.09
2018-04-18T01:48:17.991Z,998.11
2018-04-18T01:50:50.183Z,998.16
2018-04-18T01:51:50.341Z,998.14
2018-04-18T01:52:50.536Z,998.14
2018-04-18T01:53:50.898Z,998.18
2018-04-18T01:54:50.906Z,998.16
2018-04-18T01:55:51.115Z,998.16
2018-04-18T01:56:51.301Z,998.16
2018-04-18T01:57:51.505Z,998.16
2018-04-18T01:58:51.685Z,998.13
2018-04-18T01:59:51.888Z,998.19
2018-04-18T02:00:52.084Z,998.13
2018-04-18T02:01:52.269Z,998.17
2018-04-18T02:02:52.477Z,998.20
2018-04-18T02:03:52.735Z,998.19
2018-04-18T02:04:52.789Z,998.16
2018-04-18T02:05:52.993Z,998.20
2018-04-18T02:06:53.186Z,998.17
2018-04-18T02:07:53.370Z,998.21
2018-04-18T02:08:53.578Z,998.20
2018-04-18T02:09:53.783Z,998.23
2018-04-18T02:10:53.957Z,998.23
2018-04-18T02:11:54.148Z,998.22
2018-04-18T02:12:54.335Z,998.20
2018-04-18T02:13:54.557Z,998.22
2018-04-18T02:14:54.741Z,998.24
2018-04-18T02:15:54.963Z,998.23
2018-04-18T02:16:55.146Z,998.23
2018-04-18T02:17:55.340Z,998.26
2018-04-18T02:18:55.521Z,998.27
2018-04-18T02:19:55.730Z,998.28
2018-04-18T02:20:55.913Z,998.29
2018-04-18T02:23:28.142Z,998.32
2018-04-18T02:24:28.307Z,998.32
2018-04-18T02:25:28.510Z,998.30
2018-04-18T02:26:28.708Z,998.31
2018-04-18T02:27:28.904Z,998.28
2018-04-18T02:28:29.118Z,998.30
2018-04-18T02:29:29.304Z,998.26
2018-04-18T02:30:29.493Z,998.32
2018-04-18T02:31:29.692Z,998.30
2018-04-18T02:32:29.864Z,998.32
2018-04-18T02:33:30.077Z,998.34
2018-04-18T02:34:30.276Z,998.33
2018-04-18T02:37:04.117Z,998.30
2018-04-18T02:38:02.539Z,998.29
2018-04-18T02:39:02.756Z,998.35
2018-04-18T02:40:02.950Z,998.34
2018-04-18T02:41:03.144Z,998.33
2018-04-18T02:42:03.351Z,998.30
2018-04-18T02:43:03.538Z,998.35
2018-04-18T02:44:03.742Z,998.33
2018-04-18T02:45:03.932Z,998.33
2018-04-18T02:46:04.142Z,998.35
2018-04-18T02:47:04.319Z,998.33
2018-04-18T02:48:04.647Z,998.38
2018-04-18T02:49:04.729Z,998.32
2018-04-18T02:50:04.920Z,998.32
2018-04-18T02:51:05.113Z,998.35
2018-04-18T02:52:05.321Z,998.35
2018-04-18T02:53:05.525Z,998.34
2018-04-18T02:54:05.719Z,998.37
2018-04-18T02:55:05.903Z,998.34
2018-04-18T02:56:06.083Z,998.35
2018-04-18T02:57:06.277Z,998.35
2018-04-18T02:58:06.462Z,998.36
2018-04-18T02:59:06.669Z,998.39
2018-04-18T03:00:06.867Z,998.37
2018-04-18T03:01:07.059Z,998.40
2018-04-18T03:02:07.264Z,998.39
2018-04-18T03:03:07.450Z,998.38
2018-04-18T03:04:07.641Z,998.42
2018-04-18T03:05:07.833Z,998.40
2018-04-18T03:06:08.037Z,998.42
2018-04-18T03:07:08.235Z,998.40
2018-04-18T03:08:08.446Z,998.43
2018-04-18T03:09:08.688Z,998.45
2018-04-18T03:10:08.875Z,998.50
2018-04-18T03:11:09.099Z,998.48
2018-04-18T03:12:09.310Z,998.52
2018-04-18T03:13:09.497Z,998.48
2018-04-18T03:14:09.681Z,998.50
2018-04-18T03:15:09.873Z,998.55
2018-04-18T03:16:10.082Z,998.52
2018-04-18T03:17:10.273Z,998.51
2018-04-18T03:18:10.474Z,998.57
2018-04-18T03:19:10.680Z,998.53
2018-04-18T03:20:10.931Z,998.53
2018-04-18T03:21:11.013Z,998.53
2018-04-18T03:22:11.208Z,998.52
2018-04-18T03:23:11.413Z,998.53
2018-04-18T03:24:11.619Z,998.55
2018-04-18T03:25:11.816Z,998.52
2018-04-18T03:26:12.000Z,998.49
2018-04-18T03:27:12.178Z,998.53
2018-04-18T03:28:12.371Z,998.52
2018-04-18T03:29:12.580Z,998.52
2018-04-18T03:30:12.788Z,998.51
2018-04-18T03:31:12.978Z,998.52
2018-04-18T03:32:13.170Z,998.52
2018-04-18T03:33:13.362Z,998.57
2018-04-18T03:34:13.567Z,998.58
2018-04-18T03:35:13.767Z,998.59
2018-04-18T03:36:13.968Z,998.57
2018-04-18T03:37:14.152Z,998.57
2018-04-18T03:38:14.344Z,998.56
2018-04-18T03:39:14.555Z,998.59
2018-04-18T03:40:14.761Z,998.61
2018-04-18T03:41:14.942Z,998.60
2018-04-18T03:42:15.125Z,998.58
2018-04-18T03:43:15.335Z,998.62
2018-04-18T03:44:15.524Z,998.62
2018-04-18T03:45:15.732Z,998.62
2018-04-18T03:46:15.915Z,998.61
2018-04-18T03:47:16.113Z,998.64
2018-04-18T03:48:16.303Z,998.63
2018-04-18T03:49:16.477Z,998.64
2018-04-18T03:50:16.661Z,998.64
2018-04-18T03:51:16.855Z,998.64
2018-04-18T03:52:17.090Z,998.62
2018-04-18T03:53:17.228Z,998.64
2018-04-18T03:54:17.415Z,998.62
2018-04-18T03:55:17.618Z,998.64
2018-04-18T03:56:17.831Z,998.63
2018-04-18T03:57:18.037Z,998.63
2018-04-18T03:58:18.235Z,998.65
2018-04-18T03:59:18.484Z,998.63
2018-04-18T04:00:18.705Z,998.63
2018-04-18T04:01:18.894Z,998.63
2018-04-18T04:02:19.100Z,998.65
2018-04-18T04:03:19.285Z,998.66
2018-04-18T04:04:19.472Z,998.68
2018-04-18T04:05:19.652Z,998.66
2018-04-18T04:06:19.842Z,998.66
2018-04-18T04:07:20.048Z,998.66
2018-04-18T04:08:20.247Z,998.70
2018-04-18T04:09:20.436Z,998.70
2018-04-18T04:10:20.638Z,998.70
2018-04-18T04:11:20.839Z,998.71
2018-04-18T04:12:21.042Z,998.72
2018-04-18T04:13:21.241Z,998.73
2018-04-18T04:14:21.443Z,998.75
2018-04-18T04:15:21.622Z,998.75
2018-04-18T04:16:21.817Z,998.76
2018-04-18T04:17:21.989Z,998.76
2018-04-18T04:18:22.192Z,998.72
2018-04-18T04:19:22.391Z,998.78
2018-04-18T04:20:22.603Z,998.76
2018-04-18T04:21:22.808Z,998.76
2018-04-18T04:22:23.010Z,998.80
2018-04-18T04:23:23.226Z,998.82
2018-04-18T04:24:23.402Z,998.82
2018-04-18T04:25:23.586Z,998.81
2018-04-18T04:26:23.767Z,998.82
2018-04-18T04:27:23.968Z,998.86
2018-04-18T04:28:24.158Z,998.89
2018-04-18T04:29:24.369Z,998.91
2018-04-18T04:30:24.560Z,998.93
2018-04-18T04:31:24.741Z,998.94
2018-04-18T04:32:24.945Z,998.98
2018-04-18T04:33:25.123Z,998.98
2018-04-18T04:34:25.327Z,999.00
2018-04-18T04:35:25.518Z,998.98
2018-04-18T04:36:25.723Z,999.03
2018-04-18T04:37:25.926Z,999.05
2018-04-18T04:38:26.121Z,999.12
2018-04-18T04:39:26.328Z,999.17
2018-04-18T04:40:26.521Z,999.21
2018-04-18T04:41:26.719Z,999.27
2018-04-18T04:42:26.911Z,999.22
2018-04-18T04:43:27.092Z,999.29
2018-04-18T04:44:27.290Z,999.39
2018-04-18T04:45:27.486Z,999.39
2018-04-18T04:46:27.687Z,999.46
2018-04-18T04:47:27.887Z,999.51
2018-04-18T04:48:28.074Z,999.58
2018-04-18T04:49:28.273Z,999.67
2018-04-18T04:50:28.476Z,999.69
2018-04-18T04:51:28.677Z,999.64
2018-04-18T04:52:28.860Z,999.51
2018-04-18T04:53:29.064Z,999.35
2018-04-18T04:54:29.254Z,999.33
2018-04-18T04:55:29.458Z,999.34
2018-04-18T04:56:29.670Z,999.40
2018-04-18T04:57:29.841Z,999.43
2018-04-18T04:58:30.050Z,999.55
2018-04-18T04:59:30.247Z,999.59
2018-04-18T05:00:30.469Z,999.72
2018-04-18T05:01:30.663Z,999.87
2018-04-18T05:02:30.925Z,999.90
2018-04-18T05:03:31.073Z,999.95
2018-04-18T05:04:31.257Z,1000.88
2018-04-18T05:05:31.458Z,1002.40
2018-04-18T05:08:05.301Z,1002.11
2018-04-18T05:09:03.718Z,1003.04
2018-04-18T05:10:03.908Z,1003.52
2018-04-18T05:11:04.098Z,1003.36
2018-04-18T05:12:04.285Z,1003.50
2018-04-18T05:13:04.477Z,1003.64
2018-04-18T05:14:04.675Z,1003.61
2018-04-18T05:15:04.869Z,1003.58
2018-04-18T05:16:05.049Z,1003.44
2018-04-18T05:17:05.254Z,1003.57
2018-04-18T05:18:05.444Z,1003.62
2018-04-18T05:19:05.629Z,1003.51
2018-04-18T05:20:05.825Z,1003.59
2018-04-18T05:21:06.045Z,1003.85
2018-04-18T05:22:06.215Z,1003.94
2018-04-18T05:23:06.423Z,1003.92
2018-04-18T05:24:06.624Z,1004.20
2018-04-18T05:25:06.829Z,1004.39
2018-04-18T05:26:07.031Z,1004.46
2018-04-18T05:27:07.231Z,1004.46
2018-04-18T05:28:07.419Z,1004.39
2018-04-18T05:29:07.645Z,1004.54
2018-04-18T05:30:07.842Z,1004.73
2018-04-18T05:31:08.039Z,1004.74
2018-04-18T05:33:40.215Z,1004.86
2018-04-18T05:34:40.388Z,1004.95
2018-04-18T05:35:40.581Z,1004.72
2018-04-18T05:36:40.763Z,1004.31
2018-04-18T05:37:40.946Z,1004.36
2018-04-18T05:38:41.152Z,1004.31
2018-04-18T05:39:41.344Z,1004.52
2018-04-18T05:42:13.163Z,1004.90
2018-04-18T05:43:13.333Z,1004.73
2018-04-18T05:44:13.526Z,1004.54
2018-04-18T05:45:13.735Z,1004.65
2018-04-18T05:46:13.931Z,1004.58
2018-04-18T05:47:14.113Z,1004.62
2018-04-18T05:48:14.305Z,1004.65
2018-04-18T05:49:14.641Z,1004.87
2018-04-18T05:50:14.726Z,1004.84
2018-04-18T05:51:14.936Z,1004.66
2018-04-18T05:52:15.150Z,1004.43
2018-04-18T05:53:15.333Z,1004.33
2018-04-18T05:54:15.536Z,1004.25
2018-04-18T05:55:15.760Z,1004.12
2018-04-18T05:56:15.934Z,1003.93
2018-04-18T05:57:16.143Z,1003.87
2018-04-18T05:58:16.344Z,1003.88
2018-04-18T05:59:16.550Z,1003.74
2018-04-18T06:00:16.873Z,1003.51
2018-04-18T06:01:16.966Z,1003.37
2018-04-18T06:02:17.163Z,1003.30
2018-04-18T06:03:17.353Z,1003.23
2018-04-18T06:04:17.555Z,1003.19
2018-04-18T06:05:17.768Z,1003.06
2018-04-18T06:06:18.044Z,1002.93
2018-04-18T06:07:18.166Z,1002.80
2018-04-18T06:08:18.357Z,1002.79
2018-04-18T06:09:18.574Z,1002.67
2018-04-18T06:10:18.774Z,1002.54
2018-04-18T06:11:19.075Z,1002.44
2018-04-18T06:12:19.197Z,1002.35
2018-04-18T06:13:19.402Z,1002.27
2018-04-18T06:14:19.599Z,1002.19
2018-04-18T06:15:19.797Z,1002.14
2018-04-18T06:16:19.983Z,1002.10
2018-04-18T06:17:20.295Z,1002.05
2018-04-18T06:18:20.377Z,1001.95
2018-04-18T06:19:20.669Z,1001.97
2018-04-18T06:20:20.788Z,1001.94
2018-04-18T06:21:20.978Z,1001.97
2018-04-18T06:22:21.187Z,1001.94
2018-04-18T06:23:21.387Z,1001.97
2018-04-18T06:24:21.573Z,1001.89
2018-04-18T06:25:21.787Z,1001.84
2018-04-18T06:26:21.984Z,1001.86
2018-04-18T06:27:22.178Z,1001.85
2018-04-18T06:28:22.383Z,1001.82
2018-04-18T06:29:22.715Z,1001.87
2018-04-18T06:30:22.784Z,1001.86
2018-04-18T06:31:23.014Z,1001.90
2018-04-18T06:32:23.212Z,1001.85
2018-04-18T06:33:23.407Z,1001.86
2018-04-18T06:34:23.611Z,1001.88
2018-04-18T06:35:23.808Z,1001.88
2018-04-18T06:36:23.994Z,1001.85
2018-04-18T06:37:24.214Z,1001.86
2018-04-18T06:38:24.415Z,1001.89
2018-04-18T06:39:24.605Z,1001.86
2018-04-18T06:40:24.800Z,1001.90
2018-04-18T06:41:25.011Z,1001.93
2018-04-18T06:42:25.203Z,1001.89
2018-04-18T06:43:25.415Z,1001.92
2018-04-18T06:44:25.627Z,1001.94
2018-04-18T06:45:25.838Z,1001.93
2018-04-18T06:46:26.057Z,1001.93
2018-04-18T06:47:26.253Z,1001.96
2018-04-18T06:48:26.441Z,1001.93
2018-04-18T06:49:26.634Z,1001.94
2018-04-18T06:50:26.824Z,1001.95
2018-04-18T06:51:27.038Z,1001.89
2018-04-18T06:52:27.250Z,1001.93
2018-04-18T06:53:27.450Z,1001.93
2018-04-18T06:54:27.666Z,1001.97
2018-04-18T06:55:27.846Z,1001.94
2018-04-18T06:56:28.066Z,1001.92
2018-04-18T06:57:28.277Z,1001.93
2018-04-18T06:58:28.484Z,1001.98
2018-04-18T06:59:28.702Z,1001.96
2018-04-18T07:00:28.914Z,1001.99
2018-04-18T07:01:29.148Z,1002.01
2018-04-18T07:02:29.354Z,1001.96
2018-04-18T07:03:29.544Z,1001.95
2018-04-18T07:04:29.760Z,1001.96
2018-04-18T07:05:29.959Z,1001.96
2018-04-18T07:06:30.166Z,1001.99
2018-04-18T07:07:30.375Z,1002.01
2018-04-18T07:08:30.592Z,1001.98
2018-04-18T07:11:02.698Z,1002.00
2018-04-18T07:12:02.888Z,1001.99
2018-04-18T07:13:03.090Z,1002.02
2018-04-18T07:14:03.294Z,1002.00
2018-04-18T07:15:03.503Z,1002.00
2018-04-18T07:16:03.712Z,1001.97
2018-04-18T07:17:03.931Z,1001.98
2018-04-18T07:18:04.144Z,1001.97
2018-04-18T07:19:04.345Z,1002.00
2018-04-18T07:20:04.577Z,1001.95
2018-04-18T07:21:04.794Z,1001.98
2018-04-18T07:22:05.006Z,1001.99
2018-04-18T07:23:05.196Z,1002.00
2018-04-18T07:24:05.399Z,1002.01
2018-04-18T07:25:05.618Z,1001.93
2018-04-18T07:26:05.823Z,1001.94
2018-04-18T07:27:06.023Z,1001.99
2018-04-18T07:28:06.232Z,1002.03
2018-04-18T07:29:06.447Z,1002.04
2018-04-18T07:30:06.649Z,1002.06
2018-04-18T07:31:06.956Z,1002.05
2018-04-18T07:32:07.033Z,1002.04
2018-04-18T07:33:07.230Z,1002.02
2018-04-18T07:34:07.455Z,1002.05
2018-04-18T07:35:07.666Z,1002.04
2018-04-18T07:37:41.534Z,1002.08
2018-04-18T07:38:40.216Z,1002.09
2018-04-18T07:39:40.444Z,1002.09
2018-04-18T07:40:40.664Z,1002.11
2018-04-18T07:41:40.937Z,1002.13
2018-04-18T07:42:41.035Z,1002.14
2018-04-18T07:43:41.248Z,1002.11
2018-04-18T07:44:41.444Z,1002.10
2018-04-18T07:45:41.661Z,1002.15
2018-04-18T07:46:41.920Z,1002.11
2018-04-18T07:47:42.119Z,1002.15
2018-04-18T07:48:42.341Z,1002.12
2018-04-18T07:49:42.545Z,1002.14
2018-04-18T07:50:42.765Z,1002.15
2018-04-18T07:51:42.983Z,1002.13
2018-04-18T07:54:15.112Z,1002.16
2018-04-18T07:55:15.295Z,1002.21
2018-04-18T07:56:15.513Z,1002.22
2018-04-18T07:57:15.714Z,1002.22
2018-04-18T07:58:15.931Z,1002.20
2018-04-18T07:59:16.155Z,1002.21
2018-04-18T08:00:16.373Z,1002.24
2018-04-18T08:01:16.583Z,1002.23
2018-04-18T08:02:16.802Z,1002.25
2018-04-18T08:03:17.019Z,1002.26
2018-04-18T08:04:17.255Z,1002.26
2018-04-18T08:05:17.504Z,1002.30
2018-04-18T08:06:17.727Z,1002.29
2018-04-18T08:07:17.923Z,1002.35
2018-04-18T08:08:18.138Z,1002.31
2018-04-18T08:09:18.341Z,1002.32
2018-04-18T08:10:18.554Z,1002.33
2018-04-18T08:11:18.913Z,1002.32
2018-04-18T08:12:19.017Z,1002.34
2018-04-18T08:13:19.224Z,1002.30
2018-04-18T08:14:19.421Z,1002.34
2018-04-18T08:15:19.745Z,1002.31
2018-04-18T08:16:19.860Z,1002.31
2018-04-18T08:17:20.055Z,1002.33
2018-04-18T08:18:20.253Z,1002.34
2018-04-18T08:19:20.481Z,1002.34
2018-04-18T08:20:20.680Z,1002.33
2018-04-18T08:21:20.900Z,1002.33
2018-04-18T08:22:21.126Z,1002.33
2018-04-18T08:24:53.466Z,1002.30
2018-04-18T08:25:53.660Z,1002.30
2018-04-18T08:26:53.853Z,1002.30
2018-04-18T08:27:54.072Z,1002.31
2018-04-18T08:28:54.298Z,1002.29
2018-04-18T08:29:54.510Z,1002.31
2018-04-18T08:30:54.734Z,1002.33
2018-04-18T08:31:54.958Z,1002.33
2018-04-18T08:32:55.179Z,1002.32
2018-04-18T08:33:55.397Z,1002.33
2018-04-18T08:34:55.631Z,1002.30
2018-04-18T08:35:55.851Z,1002.31
2018-04-18T08:36:56.088Z,1002.29
2018-04-18T08:37:56.304Z,1002.28
2018-04-18T08:38:56.528Z,1002.29
2018-04-18T08:39:56.733Z,1002.29
2018-04-18T08:40:57.008Z,1002.23
2018-04-18T08:41:57.104Z,1002.23
2018-04-18T08:42:57.335Z,1002.25
2018-04-18T08:43:57.558Z,1002.23
2018-04-18T08:44:57.779Z,1002.22
2018-04-18T08:45:57.983Z,1002.17
2018-04-18T08:46:58.183Z,1002.17
2018-04-18T08:49:30.372Z,1002.16
2018-04-18T08:50:30.560Z,1002.12
2018-04-18T08:51:30.903Z,1002.11
2018-04-18T08:52:30.981Z,1002.11
2018-04-18T08:53:31.178Z,1002.10
2018-04-18T08:54:31.377Z,1002.11
2018-04-18T08:55:31.589Z,1002.10
2018-04-18T08:56:31.786Z,1002.15
2018-04-18T08:57:32.020Z,1002.14
2018-04-18T08:58:32.223Z,1002.13
2018-04-18T08:59:32.441Z,1002.12
2018-04-18T09:00:32.662Z,1002.10
2018-04-18T09:01:32.894Z,1002.10
2018-04-18T09:02:33.133Z,1002.12
2018-04-18T09:03:33.330Z,1002.10
2018-04-18T09:04:33.546Z,1002.14
2018-04-18T09:05:33.771Z,1002.05
2018-04-18T09:06:34.009Z,1001.97
2018-04-18T09:07:34.212Z,1001.86
2018-04-18T09:08:34.422Z,1001.74
2018-04-18T09:09:34.638Z,1001.61
2018-04-18T09:10:34.865Z,1001.56
2018-04-18T09:11:35.076Z,1001.58
2018-04-18T09:12:35.287Z,1001.57
2018-04-18T09:13:35.513Z,1001.59
2018-04-18T09:14:35.719Z,1001.56
2018-04-18T09:15:35.933Z,1001.58
2018-04-18T09:16:36.143Z,1001.56
2018-04-18T09:17:36.368Z,1001.56
2018-04-18T09:18:36.597Z,1001.60
2018-04-18T09:19:36.808Z,1001.54
2018-04-18T09:20:37.020Z,1001.55
2018-04-18T09:21:37.229Z,1001.58
2018-04-18T09:22:37.464Z,1001.55
2018-04-18T09:23:37.676Z,1001.58
2018-04-18T09:24:37.878Z,1001.57
2018-04-18T09:25:38.091Z,1001.60
2018-04-18T09:26:38.291Z,1001.61
2018-04-18T09:27:38.517Z,1001.58
2018-04-18T09:28:38.743Z,1001.62
2018-04-18T09:29:39.052Z,1001.60
2018-04-18T09:30:39.142Z,1001.60
2018-04-18T09:31:39.341Z,1001.59
2018-04-18T09:32:39.562Z,1001.60
2018-04-18T09:33:39.786Z,1001.55
2018-04-18T09:34:39.990Z,1001.60
2018-04-18T09:35:40.197Z,1001.56
2018-04-18T09:36:40.416Z,1001.53
2018-04-18T09:37:40.622Z,1001.54
2018-04-18T09:38:40.848Z,1001.54
2018-04-18T09:39:41.070Z,1001.59
2018-04-18T09:40:41.272Z,1001.57
2018-04-18T09:41:41.479Z,1001.58
2018-04-18T09:42:41.680Z,1001.60
2018-04-18T09:43:41.904Z,1001.58
2018-04-18T09:44:42.128Z,1001.57
2018-04-18T09:45:42.333Z,1001.58
2018-04-18T09:46:42.558Z,1001.54
2018-04-18T09:47:42.775Z,1001.48
2018-04-18T09:48:43.010Z,1001.51
2018-04-18T09:49:43.240Z,1001.51
2018-04-18T09:52:15.381Z,1001.50
2018-04-18T09:53:15.570Z,1001.48
2018-04-18T09:54:15.793Z,1001.45
2018-04-18T09:55:16.002Z,1001.48
2018-04-18T09:56:16.210Z,1001.49
2018-04-18T09:57:16.433Z,1001.43
2018-04-18T09:58:16.694Z,1001.44
2018-04-18T09:59:16.856Z,1001.45
2018-04-18T10:00:17.067Z,1001.40
2018-04-18T10:01:17.381Z,1001.49
2018-04-18T10:02:17.465Z,1001.43
2018-04-18T10:03:17.687Z,1001.41
2018-04-18T10:04:17.890Z,1001.38
2018-04-18T10:06:50.024Z,1001.38
2018-04-18T10:07:50.216Z,1001.38
2018-04-18T10:08:50.425Z,1001.34
2018-04-18T10:09:50.641Z,1001.34
2018-04-18T10:10:50.841Z,1001.33
2018-04-18T10:11:51.041Z,1001.36
2018-04-18T10:12:51.241Z,1001.37
2018-04-18T10:13:51.450Z,1001.36
2018-04-18T10:14:51.640Z,1001.34
2018-04-18T10:15:51.859Z,1001.29
2018-04-18T10:16:52.105Z,1001.30
2018-04-18T10:17:52.308Z,1001.31
2018-04-18T10:18:52.513Z,1001.34
2018-04-18T10:19:52.739Z,1001.31
2018-04-18T10:20:52.966Z,1001.33
2018-04-18T10:21:53.192Z,1001.35
2018-04-18T10:22:53.394Z,1001.40
2018-04-18T10:23:53.611Z,1001.40
2018-04-18T10:26:25.495Z,1001.33
2018-04-18T10:27:25.683Z,1001.36
2018-04-18T10:28:25.897Z,1001.35
2018-04-18T10:29:26.267Z,1001.30
2018-04-18T10:30:26.377Z,1001.33
2018-04-18T10:31:26.653Z,1001.34
2018-04-18T10:32:26.743Z,1001.35
2018-04-18T10:33:26.945Z,1001.35
2018-04-18T10:34:27.171Z,1001.32
2018-04-18T10:35:27.373Z,1001.32
2018-04-18T10:36:27.600Z,1001.32
2018-04-18T10:37:27.800Z,1001.34
2018-04-18T10:38:28.015Z,1001.32
2018-04-18T10:39:28.223Z,1001.24
2018-04-18T10:40:28.525Z,1001.24
2018-04-18T10:41:28.607Z,1001.27
2018-04-18T10:42:28.815Z,1001.28
2018-04-18T10:43:29.032Z,1001.29
2018-04-18T10:44:29.236Z,1001.31
2018-04-18T10:45:29.458Z,1001.24
2018-04-18T10:46:29.669Z,1001.23
2018-04-18T10:47:29.892Z,1001.18
2018-04-18T10:48:30.123Z,1001.18
2018-04-18T10:49:30.348Z,1001.21
2018-04-18T10:50:30.573Z,1001.23
2018-04-18T10:51:30.784Z,1001.19
2018-04-18T10:52:30.999Z,1001.23
2018-04-18T10:53:31.224Z,1001.15
2018-04-18T10:54:31.429Z,1001.16
2018-04-18T10:55:31.659Z,1001.17
2018-04-18T10:56:31.852Z,1001.16
2018-04-18T10:59:03.994Z,1001.10
2018-04-18T11:00:04.188Z,1001.12
2018-04-18T11:01:04.395Z,1001.18
2018-04-18T11:02:04.703Z,1001.10
2018-04-18T11:03:04.791Z,1001.12
2018-04-18T11:04:05.002Z,1001.11
2018-04-18T11:05:05.225Z,1001.06
2018-04-18T11:06:05.452Z,1001.05
2018-04-18T11:07:05.655Z,1001.00
2018-04-18T11:08:05.851Z,1001.06
2018-04-18T11:09:06.094Z,1001.04
2018-04-18T11:10:06.287Z,1001.11
2018-04-18T11:12:38.430Z,1001.08
2018-04-18T11:13:38.614Z,1001.08
2018-04-18T11:14:38.844Z,1001.08
2018-04-18T11:15:39.149Z,1001.04
2018-04-18T11:16:39.257Z,1001.02
2018-04-18T11:17:39.462Z,1001.03
2018-04-18T11:18:39.670Z,1000.99
2018-04-18T11:19:39.868Z,1001.04
2018-04-18T11:20:40.065Z,1001.00
2018-04-18T11:21:40.293Z,1000.99
2018-04-18T11:22:40.530Z,1000.98
2018-04-18T11:23:40.763Z,1000.97
2018-04-18T11:24:40.970Z,1000.97
2018-04-18T11:25:41.155Z,1000.99
2018-04-18T11:26:41.360Z,1001.02
2018-04-18T11:27:41.567Z,1000.95
2018-04-18T11:28:41.778Z,1000.91
2018-04-18T11:29:41.978Z,1000.91
2018-04-18T11:30:42.190Z,1000.88
2018-04-18T11:31:42.413Z,1000.83
2018-04-18T11:32:42.627Z,1000.82
2018-04-18T11:33:42.825Z,1000.82
2018-04-18T11:36:14.974Z,1000.65
2018-04-18T11:37:15.155Z,1000.63
2018-04-18T11:38:15.355Z,1000.59
2018-04-18T11:39:15.565Z,1000.58
2018-04-18T11:40:15.791Z,1000.58
2018-04-18T11:41:15.987Z,1000.60
2018-04-18T11:42:16.220Z,1000.59
2018-04-18T11:43:16.425Z,1000.59
2018-04-18T11:44:16.670Z,1000.58
2018-04-18T11:45:16.880Z,1000.56
2018-04-18T11:46:17.085Z,1000.53
2018-04-18T11:47:17.298Z,1000.54
2018-04-18T11:48:17.500Z,1000.49
2018-04-18T11:49:17.716Z,1000.55
2018-04-18T11:50:17.927Z,1000.52
2018-04-18T11:51:18.153Z,1000.50
2018-04-18T11:52:18.445Z,1000.49
2018-04-18T11:53:18.530Z,1000.49
2018-04-18T11:54:18.719Z,1000.52
2018-04-18T11:55:18.956Z,1000.49
2018-04-18T11:56:19.170Z,1000.52
2018-04-18T11:57:19.380Z,1000.47
2018-04-18T11:58:19.596Z,1000.46
2018-04-18T11:59:19.789Z,1000.49
2018-04-18T12:00:20.003Z,1000.46
2018-04-18T12:01:20.219Z,1000.42
2018-04-18T12:02:20.429Z,1000.43
2018-04-18T12:03:20.634Z,1000.43
2018-04-18T12:04:20.854Z,1000.46
2018-04-18T12:05:21.055Z,1000.46
2018-04-18T12:06:21.271Z,1000.40
2018-04-18T12:08:53.431Z,1000.42
2018-04-18T12:09:53.613Z,1000.38
2018-04-18T12:10:53.844Z,1000.37
2018-04-18T12:11:54.053Z,1000.33
2018-04-18T12:12:54.272Z,1000.34
2018-04-18T12:13:54.530Z,1000.33
2018-04-18T12:14:54.720Z,1000.35
2018-04-18T12:15:54.911Z,1000.37
2018-04-18T12:16:55.112Z,1000.38
2018-04-18T12:17:55.304Z,1000.38
2018-04-18T12:18:55.508Z,1000.34
2018-04-18T12:19:55.723Z,1000.34
2018-04-18T12:20:55.917Z,1000.34
2018-04-18T12:21:56.115Z,1000.32
2018-04-18T12:22:56.336Z,1000.31
2018-04-18T12:23:56.530Z,1000.32
2018-04-18T12:24:56.762Z,1000.31
2018-04-18T12:25:56.969Z,1000.37
2018-04-18T12:26:57.192Z,1000.34
2018-04-18T12:27:57.414Z,1000.36
2018-04-18T12:28:57.611Z,1000.40
2018-04-18T12:29:57.813Z,1000.36
2018-04-18T12:30:58.029Z,1000.32
2018-04-18T12:31:58.236Z,1000.31
2018-04-18T12:32:58.457Z,1000.30
2018-04-18T12:33:58.685Z,1000.30
2018-04-18T12:34:58.879Z,1000.33
2018-04-18T12:35:59.106Z,1000.38
2018-04-18T12:38:32.966Z,1000.33
2018-04-18T12:39:31.521Z,1000.32
2018-04-18T12:40:31.715Z,1000.33
2018-04-18T12:41:31.931Z,1000.36
2018-04-18T12:42:32.119Z,1000.30
2018-04-18T12:43:32.308Z,1000.30
2018-04-18T12:44:32.517Z,1000.31
2018-04-18T12:45:32.725Z,1000.30
2018-04-18T12:46:32.944Z,1000.28
2018-04-18T12:47:33.160Z,1000.27
2018-04-18T12:48:33.393Z,1000.26
2018-04-18T12:49:33.588Z,1000.23
2018-04-18T12:50:33.785Z,1000.22